This is the latest recevied weather packets stored in our database for station/object VK6WB. If no packets are shown the sender has not sent any weather packets the latest 10 day(s).
| Time | Temp. | Humidity | Pressure | Rain* | Wind** | Luminosity | Snow |
|---|---|---|---|---|---|---|---|
| 1777790405 | 20.56° C | 29% | 1020.5 hPa | 0 mm | - | 0 W/m² | - |
| 1777789804 | 20° C | 28% | 1020.5 hPa | 0 mm | - | 0 W/m² | - |
| 1777789204 | 18.89° C | 32% | 1020.6 hPa | 0 mm | - | 0 W/m² | - |
| 1777788605 | 20° C | 26% | 1020.7 hPa | 0 mm | - | 0 W/m² | - |
| 1777788004 | 19.44° C | 28% | 1020.8 hPa | 0 mm | - | 0 W/m² | - |
| 1777787405 | 19.44° C | 26% | 1020.8 hPa | 0 mm | - | 0 W/m² | - |
| 1777786804 | 18.89° C | 26% | 1020.9 hPa | 0 mm | - | 0 W/m² | - |
| 1777786204 | 19.44° C | 23% | 1020.9 hPa | 0 mm | - | 0 W/m² | - |
| 1777785604 | 18.33° C | 26% | 1021 hPa | 0 mm | - | 0 W/m² | - |
| 1777785004 | 18.33° C | 23% | 1021.1 hPa | 0 mm | - | 0 W/m² | - |
| 1777784404 | 18.33° C | 22% | 1021.3 hPa | 0 mm | - | 0 W/m² | - |
| 1777783805 | 17.78° C | 20% | 1021.4 hPa | 0 mm | - | 0 W/m² | - |
| 1777783204 | 17.22° C | 22% | 1021.5 hPa | 0 mm | - | 0 W/m² | - |
| 1777782605 | 16.67° C | 22% | 1021.7 hPa | 0 mm | - | 0 W/m² | - |
| 1777782004 | 16.67° C | 21% | 1021.9 hPa | 0 mm | - | 0 W/m² | - |
| 1777781404 | 16.67° C | 19% | 1022 hPa | 0 mm | - | 0 W/m² | - |
| 1777780804 | 16.67° C | 16% | 1022.1 hPa | 0 mm | - | 0 W/m² | - |
| 1777780204 | 16.67° C | 18% | 1022.3 hPa | 0 mm | - | 0 W/m² | - |
| 1777779604 | 16.67° C | 14% | 1022.4 hPa | 0 mm | - | 0 W/m² | - |
| 1777779004 | 16.67° C | 15% | 1022.4 hPa | 0 mm | - | 0 W/m² | - |
| 1777778404 | 16.67° C | 14% | 1022.6 hPa | 0 mm | - | 0 W/m² | - |
| 1777777804 | 16.11° C | 12% | 1022.5 hPa | 0 mm | - | 0 W/m² | - |
| 1777777204 | 16.11° C | 11% | 1022.7 hPa | 0 mm | - | 0 W/m² | - |
| 1777776604 | 16.11° C | 10% | 1022.6 hPa | 0 mm | - | 0 W/m² | - |
| 1777776004 | 16.11° C | 10% | 1022.8 hPa | 0 mm | - | 0 W/m² | - |
* Rain latest hour (hover to see other rain measurements)
** Current wind speed in m/s (hover to see current wind gust speed)